Time;durP1;ratioP1;P1;durP2;ratioP2;P2;SDS_P1;SDS_P2;PMS_P1;PMS_P2;Temp;Humidity;BMP_temperature;BMP_pressure;BME280_temperature;BME280_humidity;BME280_pressure;Samples;Min_cycle;Max_cycle;Signal;HPM_P1;HPM_P2
2023/02/16 00:02:15;;;;;;;179.07;103.60;;;26.50;2201.60;;;;;;5016490;28;20031;-84
2023/02/16 00:05:36;;;;;;;258.65;147.20;;;26.30;2201.60;;;;;;4944136;29;20039;-85
2023/02/16 00:08:41;;;;;;;193.10;105.60;;;26.20;2201.60;;;;;;4927020;29;20029;-82
2023/02/16 00:14:26;;;;;;;177.45;98.28;;;26.10;2201.60;;;;;;4952024;29;20043;-80
2023/02/16 00:16:56;;;;;;;175.13;97.75;;;26.20;2201.60;;;;;;4938202;29;20511;-80
2023/02/16 00:19:32;;;;;;;177.50;96.00;;;26.10;2201.60;;;;;;4936362;29;20484;-79
2023/02/16 00:26:02;;;;;;;186.02;94.63;;;25.80;2201.60;;;;;;4954071;29;20039;-81
2023/02/16 00:28:38;;;;;;;160.10;89.03;;;25.90;2201.60;;;;;;4938068;29;20107;-81
2023/02/16 00:31:17;;;;;;;163.90;87.05;;;25.90;2201.60;;;;;;4951448;29;20055;-80
2023/02/16 00:33:46;;;;;;;167.93;93.05;;;25.80;2201.60;;;;;;4931037;29;20052;-80
2023/02/16 00:36:25;;;;;;;162.60;90.60;;;25.90;2201.60;;;;;;4969539;29;20046;-80
2023/02/16 00:39:11;;;;;;;165.90;90.45;;;0.70;2201.60;;;;;;4956371;29;20031;-80
2023/02/16 00:42:24;;;;;;;168.30;92.25;;;25.60;2201.60;;;;;;4948489;29;20027;-82
2023/02/16 00:51:20;;;;;;;196.93;108.65;;;26.00;2201.60;;;;;;5469103;23;20057;-80
2023/02/16 00:53:47;;;;;;;173.68;95.75;;;25.70;2201.60;;;;;;5000982;28;20018;-79
2023/02/16 00:56:19;;;;;;;147.98;82.65;;;25.70;2201.60;;;;;;5002384;28;20046;-80
2023/02/16 01:01:41;;;;;;;196.82;107.32;;;25.80;2201.60;;;;;;4844043;26;20047;-81
2023/02/16 01:04:14;;;;;;;204.13;110.95;;;25.90;2201.60;;;;;;4983193;28;20014;-80
2023/02/16 01:14:53;;;;;;;236.57;129.18;;;26.00;2201.60;;;;;;4757348;26;20058;-81
2023/02/16 01:17:22;;;;;;;200.23;110.95;;;25.90;2201.60;;;;;;4982587;28;20123;-80
2023/02/16 01:19:49;;;;;;;180.90;105.28;;;25.90;2201.60;;;;;;4962488;28;20058;-77
2023/02/16 01:22:39;;;;;;;163.82;93.50;;;25.80;2201.60;;;;;;4981259;28;20010;-80
2023/02/16 01:25:08;;;;;;;151.27;86.80;;;25.90;2201.60;;;;;;4983009;28;20038;-79
2023/02/16 01:30:17;;;;;;;158.68;91.40;;;25.90;2201.60;;;;;;5103457;23;20068;-80
2023/02/16 01:33:10;;;;;;;172.20;97.97;;;26.00;2201.60;;;;;;5018916;28;20014;-80
2023/02/16 01:35:36;;;;;;;170.55;92.68;;;25.90;2201.60;;;;;;4986361;28;20050;-80
2023/02/16 01:38:04;;;;;;;129.80;72.63;;;26.20;2201.60;;;;;;4985870;28;20018;-80
2023/02/16 01:40:35;;;;;;;183.05;99.25;;;25.70;2201.60;;;;;;5002092;28;20018;-80
2023/02/16 01:46:16;;;;;;;127.07;71.43;;;25.70;2201.60;;;;;;5132849;23;20054;-80
2023/02/16 01:48:52;;;;;;;114.75;64.22;;;25.70;2201.60;;;;;;4966723;28;20094;-81
2023/02/16 01:51:35;;;;;;;108.28;60.20;;;51.20;2227.20;;;;;;4999302;28;20058;-80
2023/02/16 01:54:32;;;;;;;127.25;70.18;;;0.90;2201.60;;;;;;4982676;28;20095;-81
2023/02/16 01:57:26;;;;;;;161.90;88.82;;;25.70;2201.60;;;;;;4982128;28;20045;-80
2023/02/16 01:59:55;;;;;;;192.70;99.07;;;0.90;2201.60;;;;;;4982145;28;20015;-80
2023/02/16 02:02:26;;;;;;;168.45;93.30;;;25.60;2201.60;;;;;;4982450;28;20015;-80
2023/02/16 02:08:02;;;;;;;112.57;63.25;;;25.70;2201.60;;;;;;4999298;28;20034;-80
2023/02/16 02:10:41;;;;;;;115.80;65.05;;;0.90;2201.60;;;;;;4998482;28;20019;-81
2023/02/16 02:15:45;;;;;;;107.05;62.75;;;0.60;2201.60;;;;;;4997084;28;20037;-80
2023/02/16 02:18:12;;;;;;;111.30;66.78;;;0.40;2201.60;;;;;;4985291;28;20019;-81
2023/02/16 02:24:01;;;;;;;118.80;68.75;;;0.70;2201.60;;;;;;5001971;28;20043;-80
2023/02/16 02:26:49;;;;;;;112.57;65.95;;;0.50;2201.60;;;;;;4985117;28;20011;-80
2023/02/16 02:29:52;;;;;;;112.45;66.55;;;0.40;2201.60;;;;;;5001795;28;20007;-80
2023/02/16 02:32:38;;;;;;;108.30;60.38;;;0.50;2201.60;;;;;;4984879;28;20015;-80
2023/02/16 02:35:42;;;;;;;105.35;61.00;;;0.40;2201.60;;;;;;4984306;28;20031;-80
2023/02/16 02:38:17;;;;;;;87.20;52.22;;;0.30;2201.60;;;;;;4985048;28;20062;-81
2023/02/16 02:40:53;;;;;;;86.60;53.80;;;0.20;2201.60;;;;;;5001636;28;20015;-82
2023/02/16 02:43:43;;;;;;;103.05;54.30;;;12.90;2201.60;;;;;;4984575;28;20019;-82
2023/02/16 02:46:49;;;;;;;102.35;55.35;;;12.90;2201.60;;;;;;4970665;28;20019;-82
2023/02/16 02:49:16;;;;;;;116.53;61.13;;;12.90;2201.60;;;;;;4983558;28;20046;-82
2023/02/16 02:51:42;;;;;;;120.47;68.97;;;12.90;2201.60;;;;;;4968168;28;20039;-82
2023/02/16 03:00:43;;;;;;;108.28;59.08;;;0.00;2201.60;;;;;;5000181;28;20090;-82
2023/02/16 03:03:26;;;;;;;;;;;0.00;2201.60;;;;;;4983951;28;20078;-81
2023/02/16 03:06:12;;;;;;;97.78;57.28;;;0.00;2201.60;;;;;;4983880;28;19933;-82
2023/02/16 03:08:41;;;;;;;96.85;52.78;;;0.00;2201.60;;;;;;4983076;28;20033;-81
2023/02/16 03:14:26;;;;;;;116.50;61.40;;;13.10;2201.60;;;;;;4999672;28;20058;-82
2023/02/16 03:30:49;;;;;;;180.27;91.55;;;0.00;2201.60;;;;;;4995433;28;20037;-81
2023/02/16 03:33:16;;;;;;;181.45;91.28;;;0.10;2201.60;;;;;;4984339;28;20024;-79
2023/02/16 03:35:42;;;;;;;131.82;70.20;;;13.30;2201.60;;;;;;4983592;28;20027;-82
2023/02/16 03:38:08;;;;;;;99.47;58.40;;;13.00;2201.60;;;;;;4984065;28;20018;-82
2023/02/16 03:40:39;;;;;;;95.78;54.15;;;12.90;2201.60;;;;;;4983470;28;20027;-81
2023/02/16 03:43:07;;;;;;;86.97;51.20;;;13.00;2201.60;;;;;;4967845;28;20033;-81
2023/02/16 03:45:40;;;;;;;82.95;51.22;;;0.00;2201.60;;;;;;4983619;28;20018;-81
2023/02/16 03:48:07;;;;;;;75.88;45.13;;;0.10;2201.60;;;;;;4982940;28;20047;-81
2023/02/16 03:50:33;;;;;;;81.45;47.63;;;0.20;2201.60;;;;;;4983198;28;20017;-82
2023/02/16 03:53:07;;;;;;;84.43;50.13;;;0.30;2201.60;;;;;;4999881;28;20462;-81
2023/02/16 03:55:42;;;;;;;83.50;50.03;;;0.00;2201.60;;;;;;4983054;28;20018;-81
2023/02/16 03:58:12;;;;;;;82.65;48.78;;;0.10;2201.60;;;;;;4982522;28;20031;-82
2023/02/16 04:00:40;;;;;;;76.43;43.05;;;0.10;2201.60;;;;;;4982985;28;20007;-81
2023/02/16 04:03:07;;;;;;;70.07;40.20;;;12.90;2201.60;;;;;;4981251;28;20058;-80
2023/02/16 04:05:34;;;;;;;75.93;42.88;;;13.00;2201.60;;;;;;4979551;28;20050;-81
2023/02/16 04:08:00;;;;;;;95.90;57.72;;;13.00;2201.60;;;;;;4982425;28;20082;-81
2023/02/16 04:10:27;;;;;;;101.82;55.42;;;13.10;2201.60;;;;;;4982606;28;20015;-82
2023/02/16 04:12:53;;;;;;;103.18;54.67;;;13.00;2201.60;;;;;;4982359;28;20018;-82
2023/02/16 04:15:25;;;;;;;100.47;56.25;;;12.90;2201.60;;;;;;4982888;28;20038;-82
2023/02/16 04:17:51;;;;;;;64.33;38.77;;;0.10;2201.60;;;;;;4982596;28;20027;-82
2023/02/16 04:20:28;;;;;;;71.80;42.72;;;13.50;2201.60;;;;;;4981851;28;20031;-82
2023/02/16 04:22:54;;;;;;;78.32;46.50;;;13.10;2201.60;;;;;;4977884;28;20038;-80
2023/02/16 04:25:22;;;;;;;76.28;47.33;;;13.30;2201.60;;;;;;4997667;28;20058;-82
2023/02/16 04:27:50;;;;;;;68.25;40.70;;;13.10;2201.60;;;;;;4980557;28;20037;-81
2023/02/16 04:30:19;;;;;;;67.57;40.67;;;13.20;2201.60;;;;;;4980596;28;20037;-81
2023/02/16 04:32:46;;;;;;;78.07;44.38;;;13.30;2201.60;;;;;;4997402;28;20011;-81
2023/02/16 04:35:13;;;;;;;86.53;50.17;;;13.40;2201.60;;;;;;4980981;28;20037;-81
2023/02/16 04:37:39;;;;;;;90.68;52.90;;;13.30;2201.60;;;;;;4981415;28;20011;-82
2023/02/16 04:40:08;;;;;;;90.35;49.78;;;13.40;2201.60;;;;;;4981130;28;20031;-82
2023/02/16 04:42:34;;;;;;;84.03;47.38;;;13.50;2201.60;;;;;;4981268;28;20023;-81
2023/02/16 04:45:00;;;;;;;77.97;47.08;;;13.50;2201.60;;;;;;4965567;28;20034;-81
2023/02/16 04:47:27;;;;;;;77.28;44.22;;;0.40;2201.60;;;;;;4980554;28;20037;-81
2023/02/16 04:49:54;;;;;;;86.30;48.75;;;13.40;2201.60;;;;;;4980164;28;20031;-81
2023/02/16 04:52:20;;;;;;;75.25;44.08;;;13.30;2201.60;;;;;;4980115;28;20030;-81
2023/02/16 04:54:46;;;;;;;74.32;44.42;;;13.40;2201.60;;;;;;4980221;28;20038;-82
2023/02/16 04:57:12;;;;;;;78.82;44.17;;;13.30;2201.60;;;;;;4980451;28;20023;-81
2023/02/16 04:59:38;;;;;;;74.68;42.15;;;13.40;2201.60;;;;;;4980094;28;20116;-82
2023/02/16 05:02:06;;;;;;;67.78;39.97;;;13.60;2201.60;;;;;;4997065;28;20018;-81
2023/02/16 05:04:34;;;;;;;97.47;56.03;;;13.70;2201.60;;;;;;4980176;28;20029;-82
2023/02/16 05:07:00;;;;;;;103.18;55.65;;;38.80;2201.60;;;;;;4980365;28;20007;-81
2023/02/16 05:09:26;;;;;;;107.53;60.30;;;13.50;2201.60;;;;;;4964874;28;20094;-82
2023/02/16 05:14:40;;;;;;;78.65;44.38;;;13.50;2201.60;;;;;;4996831;28;20136;-82
2023/02/16 05:17:10;;;;;;;74.88;43.45;;;13.40;2201.60;;;;;;4964462;28;20035;-82
2023/02/16 05:19:36;;;;;;;72.82;39.50;;;13.50;2201.60;;;;;;4979960;28;20051;-82
2023/02/16 05:22:04;;;;;;;70.43;39.30;;;13.70;2201.60;;;;;;4979575;28;20042;-82
2023/02/16 05:24:30;;;;;;;74.30;42.50;;;38.50;2201.60;;;;;;4978128;28;20007;-82
2023/02/16 05:26:56;;;;;;;69.00;40.10;;;38.50;2201.60;;;;;;4977946;28;20026;-83
2023/02/16 05:29:22;;;;;;;73.95;39.78;;;13.70;2201.60;;;;;;4975949;28;20034;-82
2023/02/16 05:31:48;;;;;;;78.35;42.45;;;38.70;2201.60;;;;;;4977064;28;20042;-82
2023/02/16 05:34:14;;;;;;;90.55;48.85;;;38.50;2201.60;;;;;;4977911;28;20031;-82
2023/02/16 05:36:40;;;;;;;114.07;65.68;;;38.50;2201.60;;;;;;4977847;28;20119;-83
2023/02/16 05:39:06;;;;;;;95.32;54.22;;;38.50;2201.60;;;;;;4977317;28;20054;-82
2023/02/16 05:41:32;;;;;;;86.80;43.83;;;13.70;2201.60;;;;;;4978054;28;20050;-81
2023/02/16 05:44:02;;;;;;;80.78;44.25;;;38.50;2201.60;;;;;;4976767;28;20041;-83
2023/02/16 05:46:31;;;;;;;88.13;44.10;;;38.50;2201.60;;;;;;4977902;28;20010;-83
2023/02/16 05:48:58;;;;;;;92.10;47.63;;;38.50;2201.60;;;;;;4961542;28;20426;-83
2023/02/16 05:51:24;;;;;;;101.65;51.47;;;38.70;2201.60;;;;;;4977739;28;20037;-82
2023/02/16 05:53:52;;;;;;;111.13;55.80;;;39.00;2201.60;;;;;;4996801;28;20394;-82
2023/02/16 05:56:19;;;;;;;108.53;55.53;;;38.60;2201.60;;;;;;4981808;28;20019;-82
2023/02/16 05:58:46;;;;;;;113.15;54.83;;;13.50;2201.60;;;;;;4998072;28;20034;-82
2023/02/16 06:01:13;;;;;;;125.18;64.93;;;38.90;2201.60;;;;;;4981591;28;20031;-82
2023/02/16 06:03:40;;;;;;;101.97;55.60;;;0.00;2201.60;;;;;;4981993;28;20023;-82
2023/02/16 06:06:06;;;;;;;87.35;50.72;;;38.50;2201.60;;;;;;4980872;28;20046;-82
2023/02/16 06:08:32;;;;;;;90.25;49.70;;;38.40;2201.60;;;;;;4998597;28;20027;-82
2023/02/16 06:11:00;;;;;;;83.75;46.67;;;38.80;2201.60;;;;;;4997823;28;20037;-82
2023/02/16 06:13:26;;;;;;;106.78;59.03;;;38.50;2201.60;;;;;;4980522;28;20063;-82
2023/02/16 06:15:55;;;;;;;102.05;56.30;;;38.50;2201.60;;;;;;4981138;28;20094;-81
2023/02/16 06:18:21;;;;;;;100.88;54.95;;;38.50;2201.60;;;;;;4980970;28;20114;-82
2023/02/16 06:20:48;;;;;;;109.13;57.78;;;38.50;2201.60;;;;;;4980267;28;20022;-82
2023/02/16 06:23:14;;;;;;;103.45;56.65;;;38.60;2201.60;;;;;;4980798;28;20015;-82
2023/02/16 06:25:47;;;;;;;101.18;59.25;;;13.70;2201.60;;;;;;4982280;28;20030;-82
2023/02/16 06:28:13;;;;;;;106.20;54.85;;;13.60;2201.60;;;;;;4966828;29;20039;-81
2023/02/16 06:30:41;;;;;;;124.28;69.28;;;13.60;2201.60;;;;;;4994835;28;20035;-82
2023/02/16 06:33:07;;;;;;;139.70;73.90;;;13.50;2201.60;;;;;;4993221;28;20039;-81
2023/02/16 06:35:34;;;;;;;135.85;75.70;;;0.00;2201.60;;;;;;4961960;29;20015;-82
2023/02/16 06:38:00;;;;;;;134.70;79.68;;;13.40;2201.60;;;;;;4961150;29;20031;-82
2023/02/16 06:40:26;;;;;;;115.60;68.78;;;13.40;2201.60;;;;;;4992120;28;20038;-81
2023/02/16 06:42:52;;;;;;;124.72;70.07;;;13.30;2201.60;;;;;;4992816;28;20042;-81
2023/02/16 06:45:18;;;;;;;121.38;71.95;;;13.30;2201.60;;;;;;4992020;28;20027;-81
2023/02/16 06:47:44;;;;;;;107.80;61.20;;;13.20;2201.60;;;;;;4992185;28;20027;-81
2023/02/16 06:50:12;;;;;;;110.18;62.10;;;13.10;2201.60;;;;;;4992013;28;20042;-80
2023/02/16 06:52:38;;;;;;;115.88;68.50;;;13.10;2201.60;;;;;;4992966;28;20031;-82
2023/02/16 06:55:05;;;;;;;105.88;62.72;;;0.20;2201.60;;;;;;4993254;28;20062;-82
2023/02/16 06:57:31;;;;;;;108.53;60.35;;;13.00;2201.60;;;;;;4961426;29;20039;-82
2023/02/16 06:59:58;;;;;;;131.07;75.97;;;13.10;2201.60;;;;;;4962086;28;20047;-82
2023/02/16 07:02:24;;;;;;;123.72;69.13;;;13.00;2201.60;;;;;;4962086;29;20031;-82
2023/02/16 07:04:50;;;;;;;116.25;69.10;;;12.90;2201.60;;;;;;4962807;29;20027;-81
2023/02/16 07:07:16;;;;;;;113.43;64.93;;;13.00;2201.60;;;;;;4962554;29;20046;-82
2023/02/16 07:09:43;;;;;;;123.03;68.00;;;13.00;2201.60;;;;;;4962030;29;20027;-82
2023/02/16 07:12:09;;;;;;;118.93;68.10;;;12.90;2201.60;;;;;;4962698;29;20046;-82
2023/02/16 07:14:35;;;;;;;124.63;69.38;;;12.90;2201.60;;;;;;4962460;29;20055;-82
2023/02/16 07:17:03;;;;;;;135.05;82.13;;;12.90;2201.60;;;;;;4961172;29;20031;-82
2023/02/16 07:19:33;;;;;;;106.05;62.80;;;12.90;2201.60;;;;;;4961873;29;20043;-82
2023/02/16 07:22:00;;;;;;;119.38;66.88;;;0.10;2201.60;;;;;;4962438;29;20019;-81
2023/02/16 07:24:26;;;;;;;121.22;67.40;;;0.40;2201.60;;;;;;4963238;29;20023;-82
2023/02/16 07:26:52;;;;;;;104.38;63.80;;;0.50;2201.60;;;;;;4979440;29;20062;-82
2023/02/16 07:29:18;;;;;;;105.78;61.85;;;0.90;2201.60;;;;;;4963538;29;20035;-78
2023/02/16 07:31:44;;;;;;;113.30;66.65;;;0.60;2201.60;;;;;;4979198;29;20031;-79
2023/02/16 07:34:10;;;;;;;99.10;60.67;;;0.60;2201.60;;;;;;4962824;29;20022;-80
2023/02/16 07:36:36;;;;;;;92.75;56.88;;;0.90;2201.60;;;;;;4964110;28;20019;-80
2023/02/16 07:39:03;;;;;;;113.60;68.72;;;0.90;2201.60;;;;;;4964071;29;20038;-80
2023/02/16 07:41:29;;;;;;;112.40;69.70;;;25.90;2201.60;;;;;;4963686;29;20070;-79
2023/02/16 07:43:55;;;;;;;104.43;61.08;;;25.60;2201.60;;;;;;4963057;29;20015;-80
2023/02/16 07:46:21;;;;;;;133.60;75.50;;;25.60;2201.60;;;;;;4961801;29;20048;-80
2023/02/16 07:48:48;;;;;;;120.57;72.28;;;25.70;2201.60;;;;;;4961842;29;20063;-80
2023/02/16 07:51:26;;;;;;;123.60;72.63;;;25.80;2201.60;;;;;;4962525;29;20102;-78
2023/02/16 07:53:52;;;;;;;117.25;73.40;;;25.90;2201.60;;;;;;4964151;29;20038;-80
2023/02/16 07:56:23;;;;;;;85.97;55.00;;;25.90;2201.60;;;;;;4964235;29;20023;-80
2023/02/16 07:58:51;;;;;;;84.03;51.45;;;26.00;2201.60;;;;;;4964389;29;20015;-80
2023/02/16 08:01:17;;;;;;;94.53;61.75;;;26.00;2201.60;;;;;;4964050;28;20031;-80
2023/02/16 08:03:45;;;;;;;80.30;48.60;;;0.80;2201.60;;;;;;4964215;28;20020;-80
2023/02/16 08:06:11;;;;;;;73.15;43.10;;;26.20;2201.60;;;;;;4964426;28;20019;-81
2023/02/16 08:08:40;;;;;;;89.88;51.13;;;26.30;2201.60;;;;;;4980677;28;20022;-80
2023/02/16 08:11:17;;;;;;;82.97;46.83;;;26.50;2201.60;;;;;;4964522;28;20031;-81
2023/02/16 08:13:48;;;;;;;76.78;48.35;;;26.50;2201.60;;;;;;4963892;28;20058;-80
2023/02/16 08:16:22;;;;;;;84.47;53.95;;;51.30;2227.20;;;;;;4947284;28;20027;-80
2023/02/16 08:18:52;;;;;;;78.57;48.75;;;51.70;2227.20;;;;;;4963670;29;20039;-80
2023/02/16 08:21:24;;;;;;;94.18;58.35;;;51.50;2227.20;;;;;;4965067;29;20038;-80
2023/02/16 08:24:17;;;;;;;81.43;49.90;;;51.70;2227.20;;;;;;4964190;29;20150;-80
2023/02/16 08:26:48;;;;;;;71.03;46.10;;;51.80;2227.20;;;;;;4979352;28;20107;-81
2023/02/16 08:29:21;;;;;;;67.85;45.30;;;51.90;2227.20;;;;;;4942440;29;20098;-81
2023/02/16 08:31:48;;;;;;;69.28;42.25;;;51.90;2227.20;;;;;;4960156;29;20026;-81
2023/02/16 08:34:15;;;;;;;65.15;43.72;;;52.10;2227.20;;;;;;4960919;29;20031;-82
2023/02/16 08:36:46;;;;;;;87.20;57.72;;;76.80;2227.20;;;;;;4959024;29;20031;-81
2023/02/16 08:39:32;;;;;;;73.70;45.00;;;76.90;2227.20;;;;;;4938039;29;20103;-80
2023/02/16 08:42:04;;;;;;;68.25;42.63;;;77.00;2227.20;;;;;;4969033;29;20019;-81
2023/02/16 08:44:31;;;;;;;69.72;43.80;;;77.10;2227.20;;;;;;4954587;29;20023;-81
2023/02/16 08:46:59;;;;;;;71.18;42.92;;;77.20;2227.20;;;;;;4955339;29;20031;-81
2023/02/16 08:49:31;;;;;;;64.45;40.40;;;77.30;2227.20;;;;;;4973637;29;20034;-81
2023/02/16 08:52:00;;;;;;;63.47;39.72;;;77.40;2227.20;;;;;;4964546;29;20039;-82
2023/02/16 08:54:32;;;;;;;67.25;41.38;;;77.50;2227.20;;;;;;4930672;29;20038;-83
2023/02/16 08:57:01;;;;;;;55.92;35.10;;;77.60;2227.20;;;;;;4932519;29;20036;-82
2023/02/16 08:59:29;;;;;;;56.40;34.08;;;77.40;2227.20;;;;;;4915876;29;20507;-82
2023/02/16 09:02:06;;;;;;;49.25;32.90;;;102.40;2227.20;;;;;;4945686;29;20058;-83
2023/02/16 09:05:00;;;;;;;52.70;32.42;;;102.40;2227.20;;;;;;4944782;29;20028;-83
2023/02/16 09:10:52;;;;;;;68.20;41.28;;;102.50;2227.20;;;;;;4945046;29;20471;-83
2023/02/16 09:13:26;;;;;;;72.95;51.80;;;102.70;2227.20;;;;;;4958239;29;20031;-85
2023/02/16 09:16:10;;;;;;;61.38;41.08;;;102.80;2227.20;;;;;;4927275;29;20047;-84
2023/02/16 09:18:45;;;;;;;63.03;40.63;;;103.00;2227.20;;;;;;4944041;29;20039;-83
2023/02/16 09:21:18;;;;;;;65.82;41.53;;;103.20;2227.20;;;;;;4940576;29;20046;-85
2023/02/16 09:23:47;;;;;;;58.33;38.65;;;103.30;2227.20;;;;;;4938741;29;20050;-85
2023/02/16 09:26:23;;;;;;;59.58;38.85;;;103.30;2227.20;;;;;;4940550;29;20027;-86
2023/02/16 09:28:50;;;;;;;59.22;38.60;;;128.10;2252.80;;;;;;4942672;29;20034;-87
2023/02/16 09:31:27;;;;;;;55.95;36.25;;;128.20;2252.80;;;;;;4942652;29;20031;-87
2023/02/16 09:34:02;;;;;;;55.88;35.97;;;128.30;2252.80;;;;;;4959409;29;20423;-88
2023/02/16 09:36:29;;;;;;;55.38;36.10;;;128.40;2252.80;;;;;;4928160;29;20034;-84
2023/02/16 09:38:58;;;;;;;60.05;34.25;;;128.50;2252.80;;;;;;4942600;29;20027;-83
2023/02/16 09:41:31;;;;;;;53.72;34.35;;;128.50;2252.80;;;;;;4960023;29;20374;-85
2023/02/16 09:44:05;;;;;;;55.40;35.90;;;128.80;2252.80;;;;;;4958888;29;20019;-87
2023/02/16 09:46:33;;;;;;;54.30;39.30;;;153.60;2252.80;;;;;;4943260;29;20482;-85
2023/02/16 09:49:02;;;;;;;54.03;34.03;;;153.80;2252.80;;;;;;4953736;29;20368;-78
2023/02/16 09:51:43;;;;;;;58.38;38.00;;;153.90;2252.80;;;;;;4956216;29;20031;-80
2023/02/16 09:54:28;;;;;;;54.25;35.03;;;154.10;2252.80;;;;;;4958115;29;20031;-82
2023/02/16 09:57:30;;;;;;;60.70;39.30;;;154.20;2252.80;;;;;;4964810;29;20086;-80
2023/02/16 10:00:06;;;;;;;49.40;33.70;;;154.30;2252.80;;;;;;4942084;28;20032;-81
2023/02/16 10:02:50;;;;;;;56.05;35.47;;;154.50;2252.80;;;;;;4959314;28;20037;-79
2023/02/16 10:05:19;;;;;;;46.50;31.85;;;179.20;2252.80;;;;;;4959477;28;20027;-82
2023/02/16 10:08:30;;;;;;;54.75;34.53;;;179.40;2252.80;;;;;;4960772;28;20057;-80
2023/02/16 10:11:56;;;;;;;52.05;32.55;;;179.40;2252.80;;;;;;4864711;29;20081;-81
2023/02/16 10:14:29;;;;;;;59.53;35.13;;;179.50;2252.80;;;;;;4875218;29;20045;-80
2023/02/16 10:17:33;;;;;;;76.33;42.53;;;179.70;2252.80;;;;;;4958121;28;20395;-80
2023/02/16 10:20:08;;;;;;;94.65;50.08;;;179.90;2252.80;;;;;;4943114;28;20041;-83
2023/02/16 10:22:51;;;;;;;64.22;39.05;;;180.00;2252.80;;;;;;4966870;28;20033;-80
2023/02/16 10:25:23;;;;;;;71.30;42.03;;;180.00;2252.80;;;;;;4965959;28;20084;-78
2023/02/16 10:28:11;;;;;;;58.88;37.55;;;180.10;2252.80;;;;;;4975793;28;20037;-79
2023/02/16 10:30:38;;;;;;;66.70;43.17;;;204.90;2252.80;;;;;;4967209;28;20533;-83
2023/02/16 10:33:37;;;;;;;58.65;34.55;;;204.90;2252.80;;;;;;4967577;28;20470;-79
2023/02/16 10:36:13;;;;;;;67.13;42.83;;;205.10;2252.80;;;;;;4936819;28;20039;-84
2023/02/16 10:38:46;;;;;;;59.92;39.45;;;205.20;2252.80;;;;;;4966541;28;20034;-84
2023/02/16 10:41:25;;;;;;;55.88;38.85;;;205.40;2252.80;;;;;;4967142;28;20030;-83
2023/02/16 10:44:03;;;;;;;49.53;32.83;;;205.50;2252.80;;;;;;4975721;28;20037;-81
2023/02/16 10:46:38;;;;;;;64.75;39.25;;;205.50;2252.80;;;;;;4965856;28;20481;-81
2023/02/16 10:49:04;;;;;;;49.58;33.45;;;205.30;2252.80;;;;;;4968140;28;20474;-80
2023/02/16 10:51:36;;;;;;;48.83;34.55;;;205.50;2252.80;;;;;;4991219;28;20483;-83
2023/02/16 10:54:29;;;;;;;55.65;38.72;;;205.70;2252.80;;;;;;4962678;28;20070;-82
2023/02/16 10:57:11;;;;;;;60.25;37.90;;;230.40;2252.80;;;;;;4965916;28;20577;-81
2023/02/16 10:59:42;;;;;;;44.17;29.58;;;230.40;2252.80;;;;;;4959411;28;20035;-83
2023/02/16 11:02:19;;;;;;;67.57;43.08;;;230.40;2252.80;;;;;;4947232;28;20111;-83
2023/02/16 11:04:48;;;;;;;51.45;34.25;;;230.60;2252.80;;;;;;4970522;28;20485;-84
2023/02/16 11:07:19;;;;;;;57.70;35.50;;;230.80;2252.80;;;;;;4970863;28;20093;-83
2023/02/16 11:09:50;;;;;;;50.03;32.80;;;230.80;2252.80;;;;;;4962458;28;20447;-85
2023/02/16 11:12:23;;;;;;;52.10;34.17;;;230.70;2252.80;;;;;;4974186;28;20019;-82
2023/02/16 11:15:02;;;;;;;42.45;29.85;;;230.90;2252.80;;;;;;4967628;28;20058;-86
2023/02/16 11:17:30;;;;;;;49.65;32.60;;;231.10;2252.80;;;;;;4964431;28;20469;-80
2023/02/16 11:20:00;;;;;;;55.85;35.70;;;231.20;2252.80;;;;;;4974724;28;20034;-81
2023/02/16 11:22:36;;;;;;;56.42;37.08;;;256.10;2252.80;;;;;;4964990;28;20077;-84
2023/02/16 11:25:16;;;;;;;55.00;37.10;;;256.30;2252.80;;;;;;4967886;28;20031;-85
2023/02/16 11:27:53;;;;;;;46.97;31.95;;;256.40;2252.80;;;;;;4974992;28;20494;-84
2023/02/16 11:30:32;;;;;;;47.10;32.28;;;256.60;2252.80;;;;;;4964106;28;20054;-87
2023/02/16 11:33:23;;;;;;;59.78;40.65;;;256.80;2252.80;;;;;;4985563;28;20470;-87
2023/02/16 11:35:49;;;;;;;57.45;41.67;;;256.90;2252.80;;;;;;4991115;28;20034;-85
2023/02/16 11:38:35;;;;;;;54.03;37.05;;;281.60;2278.40;;;;;;4980549;28;20045;-85
2023/02/16 11:41:04;;;;;;;49.95;32.30;;;281.70;2278.40;;;;;;4967663;28;20030;-86
2023/02/16 11:43:35;;;;;;;47.28;31.35;;;282.00;2278.40;;;;;;4973415;28;20474;-82
2023/02/16 11:46:21;;;;;;;58.58;39.42;;;282.30;2278.40;;;;;;4962172;28;20022;-84
2023/02/16 11:48:47;;;;;;;85.47;57.20;;;307.60;2304.00;;;;;;4968683;28;20057;-83
2023/02/16 11:51:14;;;;;;;69.53;47.03;;;307.60;2304.00;;;;;;4990857;28;20359;-85
2023/02/16 11:53:42;;;;;;;47.35;32.95;;;307.90;2304.00;;;;;;4974320;28;20026;-82
2023/02/16 11:56:28;;;;;;;40.53;29.13;;;308.00;2278.40;;;;;;4945761;28;20028;-83
2023/02/16 11:59:06;;;;;;;39.08;28.30;;;333.00;2278.40;;;;;;4968356;28;20031;-85
2023/02/16 12:01:34;;;;;;;41.53;29.20;;;333.30;2278.40;;;;;;4973319;28;20034;-85
2023/02/16 12:04:19;;;;;;;50.75;32.60;;;;;;;;;;4961565;28;20042;-85
2023/02/16 12:07:21;;;;;;;38.70;28.67;;;358.50;2176.00;;;;;;4977904;28;20034;-84
2023/02/16 12:10:19;;;;;;;40.28;28.08;;;358.60;2176.00;;;;;;4961701;28;20493;-86
2023/02/16 12:13:11;;;;;;;40.05;30.77;;;358.80;2150.40;;;;;;4969743;28;20062;-84
2023/02/16 12:15:41;;;;;;;40.92;27.02;;;359.00;2099.20;;;;;;4973669;28;20050;-86
2023/02/16 12:18:13;;;;;;;29.35;21.85;;;359.20;2099.20;;;;;;4974203;28;20474;-86
2023/02/16 12:21:29;;;;;;;34.05;24.75;;;359.20;2048.00;;;;;;4959132;28;20097;-86
2023/02/16 12:24:06;;;;;;;33.80;23.13;;;359.20;2073.60;;;;;;4896668;29;20139;-86
2023/02/16 12:26:50;;;;;;;39.47;29.13;;;384.10;2150.40;;;;;;4955905;28;20074;-85
2023/02/16 12:29:38;;;;;;;35.03;25.45;;;384.20;2048.00;;;;;;4958175;28;20050;-83
2023/02/16 12:32:33;;;;;;;38.45;26.80;;;384.50;2022.40;;;;;;4991272;28;20029;-79
2023/02/16 12:35:21;;;;;;;44.30;29.17;;;384.70;2022.40;;;;;;4968383;28;20061;-82
2023/02/16 12:38:02;;;;;;;35.60;23.00;;;409.70;1996.80;;;;;;4978191;28;20039;-81
2023/02/16 12:40:55;;;;;;;35.80;27.17;;;409.70;1971.20;;;;;;4972039;28;20054;-82
2023/02/16 12:43:40;;;;;;;38.53;27.27;;;410.00;1971.20;;;;;;4970938;28;20029;-82
2023/02/16 12:46:21;;;;;;;38.42;28.55;;;410.00;1971.20;;;;;;4960612;28;20046;-82
2023/02/16 12:48:54;;;;;;;31.08;24.02;;;410.20;1971.20;;;;;;4968369;28;20027;-82
2023/02/16 12:51:27;;;;;;;25.00;19.60;;;410.10;1971.20;;;;;;4970578;28;20108;-82
2023/02/16 12:53:59;;;;;;;31.50;24.13;;;410.10;1945.60;;;;;;4971855;28;20077;-81
2023/02/16 12:56:32;;;;;;;31.05;23.58;;;410.20;1945.60;;;;;;4979810;28;20049;-80
2023/02/16 12:59:22;;;;;;;27.90;22.33;;;410.20;1945.60;;;;;;4984024;28;20031;-84
2023/02/16 13:01:51;;;;;;;33.45;25.67;;;410.30;1945.60;;;;;;4954983;28;20368;-82
2023/02/16 13:04:42;;;;;;;37.35;28.17;;;410.50;1945.60;;;;;;4961415;28;20109;-82
2023/02/16 13:07:25;;;;;;;36.70;29.23;;;410.50;1945.60;;;;;;4975668;28;20037;-84
2023/02/16 13:10:02;;;;;;;34.80;24.38;;;410.50;1894.40;;;;;;4957314;28;20057;-80
2023/02/16 13:12:40;;;;;;;33.00;25.13;;;410.50;1894.40;;;;;;4987214;28;20101;-81
2023/02/16 13:15:24;;;;;;;35.67;26.58;;;435.20;1920.00;;;;;;4967188;28;20554;-81
2023/02/16 13:18:01;;;;;;;35.03;23.33;;;435.30;1894.40;;;;;;4960952;28;20048;-81
2023/02/16 13:20:27;;;;;;;30.08;23.85;;;435.20;1894.40;;;;;;4970213;28;20034;-83
2023/02/16 13:23:11;;;;;;;31.70;24.33;;;435.30;1920.00;;;;;;4966431;28;20355;-80
2023/02/16 13:26:02;;;;;;;33.30;24.05;;;435.30;1920.00;;;;;;4960741;28;20081;-81
2023/02/16 13:28:54;;;;;;;31.25;24.02;;;435.30;1920.00;;;;;;4950469;28;20386;-84
2023/02/16 13:31:25;;;;;;;34.57;25.63;;;435.30;1920.00;;;;;;4977265;28;20034;-83
2023/02/16 13:34:31;;;;;;;32.50;25.20;;;435.30;1945.60;;;;;;4973150;28;20018;-84
2023/02/16 13:37:19;;;;;;;38.50;26.88;;;410.40;1920.00;;;;;;4957220;28;20034;-87
2023/02/16 13:39:48;;;;;;;34.85;27.75;;;410.50;1920.00;;;;;;4957874;28;20129;-85
2023/02/16 13:42:22;;;;;;;36.75;26.30;;;410.40;1920.00;;;;;;4958948;28;20042;-87
2023/02/16 13:44:53;;;;;;;34.67;26.95;;;410.40;1920.00;;;;;;4958730;28;20466;-87
2023/02/16 13:47:28;;;;;;;32.03;23.63;;;435.30;1920.00;;;;;;4971060;28;20030;-88